createdAt,value
2019-03-25T00:01:23.765Z,2.93
2019-03-25T00:03:54.411Z,2.87
2019-03-25T00:06:24.978Z,2.63
2019-03-25T00:09:04.908Z,3.00
2019-03-25T00:11:28.024Z,3.03
2019-03-25T00:13:58.695Z,3.13
2019-03-25T00:16:29.443Z,2.90
2019-03-25T00:19:00.057Z,2.60
2019-03-25T00:21:30.572Z,3.20
2019-03-25T00:24:01.117Z,3.03
2019-03-25T00:26:31.639Z,3.00
2019-03-25T00:29:02.173Z,3.77
2019-03-25T00:31:32.805Z,2.90
2019-03-25T00:34:03.301Z,3.27
2019-03-25T00:36:34.316Z,3.43
2019-03-25T00:39:05.773Z,3.87
2019-03-25T00:41:36.460Z,2.60
2019-03-25T00:44:07.309Z,3.70
2019-03-25T00:46:38.800Z,2.70
2019-03-25T00:49:09.433Z,3.00
2019-03-25T00:51:40.133Z,2.33
2019-03-25T00:54:10.712Z,2.83
2019-03-25T00:56:41.292Z,2.83
2019-03-25T00:59:12.804Z,3.10
2019-03-25T01:01:44.452Z,3.17
2019-03-25T01:04:14.993Z,3.07
2019-03-25T01:06:45.989Z,3.53
2019-03-25T01:09:16.537Z,3.30
2019-03-25T01:11:49.298Z,3.20
2019-03-25T01:14:19.376Z,3.60
2019-03-25T01:16:49.920Z,2.70
2019-03-25T01:19:20.488Z,2.77
2019-03-25T01:21:51.204Z,2.20
2019-03-25T01:24:21.812Z,3.00
2019-03-25T01:26:52.392Z,2.60
2019-03-25T01:29:22.933Z,3.07
2019-03-25T01:31:53.533Z,2.33
2019-03-25T01:34:24.133Z,2.97
2019-03-25T01:36:56.238Z,2.87
2019-03-25T01:39:26.774Z,2.57
2019-03-25T01:41:57.292Z,3.00
2019-03-25T01:44:27.854Z,2.97
2019-03-25T01:46:59.041Z,3.13
2019-03-25T01:49:30.144Z,2.60
2019-03-25T01:52:00.624Z,2.80
2019-03-25T01:54:31.632Z,3.50
2019-03-25T01:57:02.805Z,2.43
2019-03-25T01:59:33.907Z,3.13
2019-03-25T02:02:05.121Z,2.87
2019-03-25T02:04:35.645Z,3.00
2019-03-25T02:07:06.478Z,2.97
2019-03-25T02:09:37.225Z,3.10
2019-03-25T02:12:09.215Z,2.87
2019-03-25T02:14:39.701Z,2.90
2019-03-25T02:17:10.713Z,2.80
2019-03-25T02:19:41.244Z,5.63
2019-03-25T02:22:11.759Z,7.30
2019-03-25T02:24:42.506Z,9.50
2019-03-25T02:27:13.054Z,8.73
2019-03-25T02:29:44.092Z,8.17
2019-03-25T02:32:15.271Z,8.57
2019-03-25T02:34:46.293Z,8.80
2019-03-25T02:37:17.460Z,8.80
2019-03-25T02:39:48.857Z,8.63
2019-03-25T02:42:19.570Z,7.80
2019-03-25T02:44:50.605Z,7.50
2019-03-25T02:47:21.593Z,7.80
2019-03-25T02:49:52.630Z,8.10
2019-03-25T02:52:23.179Z,7.53
2019-03-25T02:54:53.774Z,8.07
2019-03-25T02:57:24.320Z,7.40
2019-03-25T02:59:55.372Z,7.00
2019-03-25T03:02:25.981Z,7.03
2019-03-25T03:04:57.028Z,7.70
2019-03-25T03:07:28.057Z,6.80
2019-03-25T03:09:58.693Z,6.50
2019-03-25T03:12:29.316Z,6.97
2019-03-25T03:15:00.618Z,6.80
2019-03-25T03:17:31.709Z,6.77
2019-03-25T03:20:03.182Z,6.43
2019-03-25T03:22:33.858Z,5.27
2019-03-25T03:25:05.197Z,6.90
2019-03-25T03:27:36.182Z,6.90
2019-03-25T03:30:06.949Z,6.47
2019-03-25T03:32:37.459Z,6.53
2019-03-25T03:35:09.104Z,6.40
2019-03-25T03:37:40.233Z,7.30
2019-03-25T03:40:11.005Z,6.40
2019-03-25T03:42:41.846Z,7.30
2019-03-25T03:45:12.824Z,6.83
2019-03-25T03:47:43.375Z,6.73
2019-03-25T03:50:23.964Z,6.30
2019-03-25T03:52:55.930Z,5.97
2019-03-25T03:55:27.234Z,6.20
2019-03-25T03:57:58.667Z,6.50
2019-03-25T04:00:31.980Z,13.30
2019-03-25T04:03:03.413Z,6.90
2019-03-25T04:05:34.184Z,8.80
2019-03-25T04:08:04.747Z,5.80
2019-03-25T04:10:35.259Z,6.20
2019-03-25T04:13:06.194Z,5.97
2019-03-25T04:15:37.334Z,6.63
2019-03-25T04:18:08.350Z,6.30
2019-03-25T04:20:38.961Z,6.03
2019-03-25T04:23:09.509Z,5.40
2019-03-25T04:25:40.062Z,6.10
2019-03-25T04:28:10.624Z,6.00
2019-03-25T04:30:41.868Z,7.87
2019-03-25T04:33:12.406Z,15.20
2019-03-25T04:35:43.011Z,8.97
2019-03-25T04:38:14.072Z,6.27
2019-03-25T04:40:44.702Z,5.83
2019-03-25T04:43:15.786Z,5.97
2019-03-25T04:45:46.634Z,6.43
2019-03-25T04:48:17.159Z,5.70
2019-03-25T04:50:47.755Z,6.30
2019-03-25T04:53:18.778Z,6.10
2019-03-25T04:55:49.490Z,5.60
2019-03-25T04:58:20.044Z,6.63
2019-03-25T05:00:50.658Z,5.53
2019-03-25T05:03:21.189Z,7.03
2019-03-25T05:05:52.252Z,6.47
2019-03-25T05:08:22.757Z,5.90
2019-03-25T05:10:53.287Z,5.77
2019-03-25T05:13:24.340Z,6.23
2019-03-25T05:15:55.438Z,8.10
2019-03-25T05:18:25.996Z,6.30
2019-03-25T05:20:57.024Z,6.53
2019-03-25T05:23:27.878Z,6.80
2019-03-25T05:25:58.379Z,7.10
2019-03-25T05:28:28.886Z,5.40
2019-03-25T05:30:59.410Z,5.77
2019-03-25T05:33:29.948Z,6.57
2019-03-25T05:36:00.501Z,6.70
2019-03-25T05:38:31.564Z,6.27
2019-03-25T05:41:03.790Z,6.57
2019-03-25T05:43:34.825Z,6.10
2019-03-25T05:46:05.513Z,5.00
2019-03-25T05:48:36.572Z,5.97
2019-03-25T05:51:07.140Z,4.60
2019-03-25T05:53:38.185Z,6.47
2019-03-25T05:56:08.717Z,5.70
2019-03-25T05:58:39.651Z,5.80
2019-03-25T06:01:10.572Z,6.70
2019-03-25T06:03:41.736Z,5.60
2019-03-25T06:06:12.293Z,6.50
2019-03-25T06:08:43.533Z,5.80
2019-03-25T06:11:15.006Z,5.83
2019-03-25T06:13:45.588Z,5.60
2019-03-25T06:16:16.177Z,4.43
2019-03-25T06:18:46.753Z,5.40
2019-03-25T06:21:17.818Z,3.93
2019-03-25T06:23:48.847Z,5.33
2019-03-25T06:26:20.322Z,4.83
2019-03-25T06:28:51.356Z,5.53
2019-03-25T06:31:21.972Z,5.00
2019-03-25T06:33:53.562Z,5.13
2019-03-25T06:36:24.140Z,4.73
2019-03-25T06:38:55.140Z,4.20
2019-03-25T06:41:26.241Z,4.00
2019-03-25T06:43:56.828Z,4.10
2019-03-25T06:46:28.029Z,4.33
2019-03-25T06:48:58.640Z,3.70
2019-03-25T06:51:29.221Z,3.80
2019-03-25T06:53:59.773Z,3.80
2019-03-25T06:56:30.342Z,4.27
2019-03-25T06:59:01.745Z,4.50
2019-03-25T07:01:32.216Z,4.37
2019-03-25T07:04:02.757Z,3.87
2019-03-25T07:06:33.454Z,4.33
2019-03-25T07:09:04.933Z,3.93
2019-03-25T07:11:35.436Z,3.90
2019-03-25T07:14:06.025Z,4.00
2019-03-25T07:16:36.641Z,4.10
2019-03-25T07:19:07.213Z,4.60
2019-03-25T07:21:37.719Z,4.43
2019-03-25T07:24:08.236Z,5.10
2019-03-25T07:26:40.187Z,5.07
2019-03-25T07:29:10.705Z,4.80
2019-03-25T07:31:41.181Z,5.43
2019-03-25T07:34:11.932Z,5.03
2019-03-25T07:36:42.436Z,4.57
2019-03-25T07:39:13.096Z,5.20
2019-03-25T07:41:43.676Z,6.17
2019-03-25T07:44:14.176Z,6.50
2019-03-25T07:46:45.101Z,5.60
2019-03-25T07:49:15.889Z,5.40
2019-03-25T07:51:46.489Z,5.60
2019-03-25T07:54:17.051Z,5.80
2019-03-25T07:56:47.541Z,5.43
2019-03-25T07:59:20.099Z,6.27
2019-03-25T08:01:50.317Z,5.37
2019-03-25T08:04:20.792Z,6.87
2019-03-25T08:06:51.315Z,6.07
2019-03-25T08:09:21.872Z,5.37
2019-03-25T08:11:52.446Z,6.10
2019-03-25T08:14:22.946Z,6.10
2019-03-25T08:16:53.481Z,7.10
2019-03-25T08:19:24.140Z,7.87
2019-03-25T08:21:54.641Z,7.50
2019-03-25T08:24:25.404Z,7.37
2019-03-25T08:26:55.965Z,6.60
2019-03-25T08:29:26.489Z,5.57
2019-03-25T08:31:58.919Z,5.40
2019-03-25T08:34:29.173Z,5.80
2019-03-25T08:36:59.958Z,6.27
2019-03-25T08:39:30.489Z,6.00
2019-03-25T08:42:01.032Z,7.03
2019-03-25T08:44:31.804Z,6.40
2019-03-25T08:47:02.670Z,7.53
2019-03-25T08:49:33.239Z,7.97
2019-03-25T08:52:03.888Z,7.17
2019-03-25T08:54:34.523Z,6.60
2019-03-25T08:57:05.548Z,7.53
2019-03-25T08:59:36.064Z,6.70
2019-03-25T09:02:06.905Z,7.53
2019-03-25T09:04:37.608Z,7.37
2019-03-25T09:07:08.108Z,7.17
2019-03-25T09:09:38.669Z,8.30
2019-03-25T09:12:09.386Z,6.63
2019-03-25T09:14:39.986Z,7.70
2019-03-25T09:17:10.541Z,7.53
2019-03-25T09:19:41.158Z,7.10
2019-03-25T09:22:11.685Z,8.10
2019-03-25T09:24:42.223Z,8.07
2019-03-25T09:27:12.894Z,7.67
2019-03-25T09:29:43.432Z,9.30
2019-03-25T09:32:14.028Z,10.70
2019-03-25T09:34:44.570Z,32.50
2019-03-25T09:37:15.189Z,11.77
2019-03-25T09:39:45.853Z,8.03
2019-03-25T09:42:16.373Z,8.07
2019-03-25T09:44:47.201Z,7.90
2019-03-25T09:47:18.052Z,7.30
2019-03-25T09:49:48.849Z,8.37
2019-03-25T09:52:19.857Z,8.53
2019-03-25T09:54:50.462Z,8.87
2019-03-25T09:57:20.997Z,8.40
2019-03-25T09:59:51.665Z,7.93
2019-03-25T10:02:22.222Z,7.13
2019-03-25T10:04:52.862Z,7.90
2019-03-25T10:07:24.635Z,7.17
2019-03-25T10:09:55.121Z,7.77
2019-03-25T10:12:25.749Z,7.50
2019-03-25T10:14:56.286Z,8.57
2019-03-25T10:17:26.937Z,7.53
2019-03-25T10:19:57.495Z,9.30
2019-03-25T10:22:28.041Z,8.50
2019-03-25T10:24:58.508Z,9.00
2019-03-25T10:27:29.037Z,8.70
2019-03-25T10:29:59.948Z,8.90
2019-03-25T10:32:30.695Z,9.00
2019-03-25T10:35:01.513Z,9.50
2019-03-25T10:37:32.517Z,10.70
2019-03-25T10:40:03.254Z,9.80
2019-03-25T10:42:33.824Z,9.63
2019-03-25T10:45:04.872Z,10.63
2019-03-25T10:47:35.416Z,10.40
2019-03-25T10:50:06.789Z,9.90
2019-03-25T10:52:37.417Z,9.33
2019-03-25T10:55:08.717Z,10.70
2019-03-25T10:57:39.210Z,9.27
2019-03-25T11:00:11.076Z,10.93
2019-03-25T11:02:41.588Z,9.70
2019-03-25T11:05:13.640Z,10.63
2019-03-25T11:07:44.589Z,11.10
2019-03-25T11:10:15.391Z,10.70
2019-03-25T11:12:45.908Z,12.07
2019-03-25T11:15:16.766Z,10.50
2019-03-25T11:17:47.521Z,11.43
2019-03-25T11:20:18.241Z,11.27
2019-03-25T11:22:48.776Z,11.73
2019-03-25T11:25:19.890Z,10.87
2019-03-25T11:27:54.482Z,12.33
2019-03-25T11:30:40.188Z,11.90
2019-03-25T11:33:10.832Z,10.90
2019-03-25T11:35:41.592Z,11.90
2019-03-25T11:38:12.793Z,13.27
2019-03-25T11:40:43.373Z,12.50
2019-03-25T11:43:13.894Z,12.77
2019-03-25T11:45:44.500Z,11.80
2019-03-25T11:48:15.337Z,12.97
2019-03-25T11:50:46.406Z,12.27
2019-03-25T11:53:16.956Z,11.90
2019-03-25T11:55:47.605Z,11.17
2019-03-25T11:58:18.095Z,12.50
2019-03-25T12:00:48.938Z,11.47
2019-03-25T12:03:19.540Z,10.50
2019-03-25T12:05:50.070Z,11.83
2019-03-25T12:08:20.580Z,12.70
2019-03-25T12:10:51.138Z,10.50
2019-03-25T12:13:21.673Z,12.50
2019-03-25T12:15:52.221Z,11.37
2019-03-25T12:18:22.864Z,11.33
2019-03-25T12:20:53.496Z,10.10
2019-03-25T12:23:26.555Z,10.37
2019-03-25T12:25:56.452Z,10.00
2019-03-25T12:28:27.300Z,9.33
2019-03-25T12:30:57.965Z,9.00
2019-03-25T12:33:28.702Z,7.70
2019-03-25T12:35:59.222Z,7.90
2019-03-25T12:38:30.101Z,7.20
2019-03-25T12:41:00.825Z,7.20
2019-03-25T12:43:31.465Z,8.23
2019-03-25T12:46:02.241Z,8.70
2019-03-25T12:48:33.224Z,8.43
2019-03-25T12:51:03.928Z,7.90
2019-03-25T12:53:34.792Z,7.70
2019-03-25T12:56:05.568Z,8.10
2019-03-25T12:58:36.090Z,7.20
2019-03-25T13:01:07.533Z,7.47
2019-03-25T13:03:40.508Z,7.50
2019-03-25T13:06:10.360Z,7.37
2019-03-25T13:08:40.864Z,7.13
2019-03-25T13:11:11.624Z,6.80
2019-03-25T13:13:42.161Z,6.40
2019-03-25T13:16:12.820Z,6.73
2019-03-25T13:18:43.408Z,5.83
2019-03-25T13:21:14.661Z,5.57
2019-03-25T13:23:45.535Z,5.50
2019-03-25T13:26:16.332Z,5.40
2019-03-25T13:28:46.874Z,4.90
2019-03-25T13:31:17.458Z,4.77
2019-03-25T13:33:47.995Z,5.10
2019-03-25T13:36:18.617Z,5.00
2019-03-25T13:38:49.121Z,4.70
2019-03-25T13:41:19.672Z,5.83
2019-03-25T13:43:51.026Z,5.70
2019-03-25T13:46:21.765Z,4.63
2019-03-25T13:48:52.552Z,4.70
2019-03-25T13:51:23.506Z,5.00
2019-03-25T13:53:54.176Z,5.30
2019-03-25T13:56:25.072Z,5.33
2019-03-25T13:58:55.608Z,6.10
2019-03-25T14:01:26.278Z,6.10
2019-03-25T14:03:56.959Z,5.67
2019-03-25T14:06:27.917Z,5.40
2019-03-25T14:08:58.592Z,5.63
2019-03-25T14:11:29.560Z,6.20
2019-03-25T14:14:00.364Z,5.97
2019-03-25T14:16:30.949Z,6.00
2019-03-25T14:19:01.535Z,5.93
2019-03-25T14:21:33.409Z,6.40
2019-03-25T14:24:04.116Z,5.60
2019-03-25T14:26:34.882Z,5.70
2019-03-25T14:29:05.505Z,6.37
2019-03-25T14:31:35.994Z,5.33
2019-03-25T14:34:06.528Z,6.10
2019-03-25T14:36:37.069Z,6.00
2019-03-25T14:39:08.024Z,5.20
2019-03-25T14:41:38.577Z,5.40
2019-03-25T14:44:09.141Z,4.80
2019-03-25T14:46:39.665Z,5.60
2019-03-25T14:49:10.192Z,5.20
2019-03-25T14:51:40.916Z,5.23
2019-03-25T14:54:11.512Z,5.70
2019-03-25T14:56:42.015Z,5.60
2019-03-25T14:59:12.542Z,6.13
2019-03-25T15:01:43.537Z,5.67
2019-03-25T15:04:14.080Z,5.80
2019-03-25T15:06:44.869Z,4.97
2019-03-25T15:09:15.401Z,5.67
2019-03-25T15:11:46.254Z,5.73
2019-03-25T15:14:17.084Z,5.33
2019-03-25T15:16:47.584Z,4.80
2019-03-25T15:19:18.120Z,5.43
2019-03-25T15:21:48.657Z,5.43
2019-03-25T15:24:19.256Z,4.63
2019-03-25T15:26:49.832Z,5.50
2019-03-25T15:29:20.854Z,5.30
2019-03-25T15:31:51.645Z,5.80
2019-03-25T15:34:22.172Z,4.83
2019-03-25T15:36:52.665Z,5.07
2019-03-25T15:39:23.293Z,5.57
2019-03-25T15:41:53.813Z,5.00
2019-03-25T15:44:24.633Z,5.90
2019-03-25T15:46:56.026Z,5.07
2019-03-25T15:49:27.213Z,5.53
2019-03-25T15:51:57.792Z,4.90
2019-03-25T15:54:28.617Z,5.40
2019-03-25T15:56:59.152Z,5.17
2019-03-25T15:59:29.678Z,5.90
2019-03-25T16:02:00.208Z,5.27
2019-03-25T16:04:30.738Z,5.03
2019-03-25T16:07:01.221Z,5.40
2019-03-25T16:09:31.917Z,5.80
2019-03-25T16:12:04.858Z,4.40
2019-03-25T16:14:34.738Z,5.40
2019-03-25T16:17:05.549Z,5.10
2019-03-25T16:19:36.088Z,4.83
2019-03-25T16:22:06.957Z,4.67
2019-03-25T16:24:37.553Z,4.90
2019-03-25T16:27:08.095Z,4.87
2019-03-25T16:29:38.591Z,5.50
2019-03-25T16:32:09.912Z,5.77
2019-03-25T16:34:40.504Z,5.20
2019-03-25T16:37:10.997Z,5.53
2019-03-25T16:39:41.593Z,5.20
2019-03-25T16:42:12.117Z,5.37
2019-03-25T16:44:43.216Z,4.80
2019-03-25T16:47:13.820Z,5.43
2019-03-25T16:49:44.306Z,6.30
2019-03-25T16:52:14.837Z,5.17
2019-03-25T16:54:45.445Z,5.80
2019-03-25T16:57:15.985Z,5.23
2019-03-25T16:59:46.493Z,5.70
2019-03-25T17:02:17.045Z,5.10
2019-03-25T17:04:47.589Z,5.23
2019-03-25T17:07:18.320Z,5.10
2019-03-25T17:09:48.852Z,5.90
2019-03-25T17:12:19.585Z,6.23
2019-03-25T17:14:50.417Z,4.60
2019-03-25T17:17:20.997Z,5.00
2019-03-25T17:19:51.540Z,4.53
2019-03-25T17:22:22.131Z,4.70
2019-03-25T17:24:52.689Z,5.07
2019-03-25T17:27:23.361Z,5.40
2019-03-25T17:29:53.948Z,4.20
2019-03-25T17:32:24.501Z,4.53
2019-03-25T17:34:55.177Z,4.60
2019-03-25T17:37:25.877Z,4.30
2019-03-25T17:39:56.392Z,4.27
2019-03-25T17:42:26.956Z,3.77
2019-03-25T17:44:57.739Z,4.73
2019-03-25T17:47:29.384Z,4.63
2019-03-25T17:50:00.167Z,4.13
2019-03-25T17:52:31.121Z,4.37
2019-03-25T17:55:01.953Z,3.63
2019-03-25T17:57:32.491Z,3.70
2019-03-25T18:00:03.080Z,4.10
2019-03-25T18:02:33.662Z,4.07
2019-03-25T18:05:05.036Z,3.93
2019-03-25T18:07:35.657Z,4.33
2019-03-25T18:10:06.529Z,5.10
2019-03-25T18:12:38.970Z,4.10
2019-03-25T18:15:11.742Z,4.63
2019-03-25T18:17:42.322Z,5.07
2019-03-25T18:20:18.616Z,3.53
2019-03-25T18:22:45.142Z,3.97
2019-03-25T18:25:15.732Z,4.70
2019-03-25T18:27:46.261Z,3.67
2019-03-25T18:30:16.976Z,4.43
2019-03-25T18:32:47.543Z,4.30
2019-03-25T18:35:24.201Z,3.80
2019-03-25T18:37:54.714Z,3.50
2019-03-25T18:40:25.408Z,4.07
2019-03-25T18:42:56.241Z,4.40
2019-03-25T18:45:27.313Z,4.83
2019-03-25T18:47:58.186Z,6.27
2019-03-25T18:50:29.419Z,6.90
2019-03-25T18:53:00.224Z,5.90
2019-03-25T18:55:31.005Z,6.90
2019-03-25T18:58:01.582Z,6.10
2019-03-25T19:00:33.301Z,5.13
2019-03-25T19:03:04.890Z,6.00
2019-03-25T19:05:36.749Z,5.73
2019-03-25T19:08:10.609Z,7.03
2019-03-25T19:10:42.232Z,6.80
2019-03-25T19:13:15.337Z,8.03
2019-03-25T19:15:48.669Z,6.03
2019-03-25T19:18:19.229Z,6.23
2019-03-25T19:20:51.077Z,5.43
2019-03-25T19:23:21.909Z,6.47
2019-03-25T19:25:52.672Z,5.80
2019-03-25T19:28:23.452Z,5.60
2019-03-25T19:30:53.999Z,5.33
2019-03-25T19:33:24.861Z,6.40
2019-03-25T19:35:55.694Z,5.87
2019-03-25T19:38:26.279Z,5.30
2019-03-25T19:40:56.956Z,6.83
2019-03-25T19:43:27.889Z,7.30
2019-03-25T19:45:58.416Z,6.07
2019-03-25T19:48:29.842Z,7.07
2019-03-25T19:51:00.367Z,5.97
2019-03-25T19:53:31.001Z,6.20
2019-03-25T19:56:02.208Z,5.53
2019-03-25T19:58:32.832Z,6.30
2019-03-25T20:01:03.458Z,7.13
2019-03-25T20:03:34.036Z,6.43
2019-03-25T20:06:04.747Z,5.70
2019-03-25T20:08:35.300Z,6.37
2019-03-25T20:11:05.909Z,5.90
2019-03-25T20:13:36.819Z,5.93
2019-03-25T20:16:07.540Z,5.30
2019-03-25T20:18:38.112Z,5.93
2019-03-25T20:21:10.653Z,5.87
2019-03-25T20:23:41.486Z,6.63
2019-03-25T20:26:12.115Z,6.40
2019-03-25T20:28:43.393Z,8.03
2019-03-25T20:31:14.066Z,7.43
2019-03-25T20:33:47.797Z,7.60
2019-03-25T20:36:18.624Z,7.40
2019-03-25T20:38:49.800Z,8.37
2019-03-25T20:41:20.439Z,6.87
2019-03-25T20:43:51.025Z,7.70
2019-03-25T20:46:21.921Z,7.67
2019-03-25T20:48:52.853Z,8.10
2019-03-25T20:51:23.699Z,7.27
2019-03-25T20:53:54.237Z,8.03
2019-03-25T20:56:25.266Z,7.27
2019-03-25T20:58:56.139Z,8.43
2019-03-25T21:01:28.558Z,7.30
2019-03-25T21:03:59.739Z,7.37
2019-03-25T21:06:30.660Z,7.03
2019-03-25T21:09:01.504Z,7.27
2019-03-25T21:11:32.109Z,7.50
2019-03-25T21:14:02.962Z,7.57
2019-03-25T21:16:33.463Z,8.93
2019-03-25T21:19:04.209Z,7.80
2019-03-25T21:21:35.216Z,8.60
2019-03-25T21:24:06.043Z,9.00
2019-03-25T21:26:36.610Z,9.37
2019-03-25T21:29:07.375Z,10.30
2019-03-25T21:31:39.241Z,8.93
2019-03-25T21:34:10.199Z,11.77
2019-03-25T21:36:41.519Z,10.70
2019-03-25T21:39:12.044Z,11.20
2019-03-25T21:41:42.614Z,11.70
2019-03-25T21:44:13.197Z,11.73
2019-03-25T21:46:43.813Z,11.50
2019-03-25T21:49:15.240Z,11.17
2019-03-25T21:51:46.154Z,11.13
2019-03-25T21:54:19.587Z,12.13
2019-03-25T21:56:50.232Z,11.83
2019-03-25T21:59:20.822Z,11.77
2019-03-25T22:01:51.647Z,12.40
2019-03-25T22:04:22.432Z,10.83
2019-03-25T22:06:53.048Z,11.53
2019-03-25T22:09:23.632Z,11.30
2019-03-25T22:11:54.608Z,12.60
2019-03-25T22:14:25.583Z,12.27
2019-03-25T22:16:56.113Z,12.33
2019-03-25T22:19:26.728Z,11.70
2019-03-25T22:21:57.256Z,13.37
2019-03-25T22:24:27.892Z,13.07
2019-03-25T22:26:58.444Z,12.50
2019-03-25T22:29:29.132Z,14.80
2019-03-25T22:31:59.757Z,13.90
2019-03-25T22:34:30.261Z,13.53
2019-03-25T22:37:00.952Z,12.90
2019-03-25T22:39:31.645Z,13.07
2019-03-25T22:42:02.673Z,13.93
2019-03-25T22:44:33.172Z,15.10
2019-03-25T22:47:03.786Z,15.30
2019-03-25T22:49:34.341Z,14.47
2019-03-25T22:52:04.984Z,14.50
2019-03-25T22:54:35.510Z,13.73
2019-03-25T22:57:06.045Z,13.13
2019-03-25T22:59:36.633Z,13.73
2019-03-25T23:02:07.321Z,13.30
2019-03-25T23:04:37.881Z,13.63
2019-03-25T23:07:08.984Z,13.07
2019-03-25T23:09:39.699Z,13.17
2019-03-25T23:12:10.446Z,15.50
2019-03-25T23:14:41.684Z,13.23
2019-03-25T23:17:12.181Z,11.43
2019-03-25T23:19:42.753Z,13.13
2019-03-25T23:22:13.348Z,11.90
2019-03-25T23:24:44.551Z,13.60
2019-03-25T23:27:15.145Z,12.87
2019-03-25T23:29:46.104Z,14.03
2019-03-25T23:32:16.827Z,12.87
2019-03-25T23:34:47.899Z,14.30
2019-03-25T23:37:18.404Z,13.37
2019-03-25T23:39:49.471Z,13.43
2019-03-25T23:42:20.447Z,13.50
2019-03-25T23:44:51.042Z,14.10
2019-03-25T23:47:22.269Z,14.47
2019-03-25T23:49:53.760Z,13.70
2019-03-25T23:52:24.763Z,14.20
2019-03-25T23:54:55.330Z,14.57
2019-03-25T23:57:25.908Z,14.90
2019-03-25T23:59:57.045Z,14.10
